Cypress Mill, Texas
Current Conditions -  °F | °C
As of 7:35 AM on Wednesday 22 Oct 2014 (Local Time) from KDZB Reporting Station
Clear Clear  
Wind Chill: 58°   Ceiling: Unl
Heat Index: 58°   Visibility: 10mi
Dew Point: 54°   Wind: 0mph
Humidity: 86%   Direction: NA
Pressure: 30.1"   Gusts: NA
Location:  30.3215°N, 98.3242°W
Report Text: KDZB 221235Z AUTO 00000KT 10SM CLR 14/12 A3010 RMK AO2 T01430120
Loading
Personal Weather Stations






























Interactive Weather Map
Tropical Storm Tracking
New forecast layout! Learn more

10-Day Weather Forecast

Advertisements
Track Severe Weather on mobile